createdAt,value
2023-02-02T00:01:49.680Z,99999.44
2023-02-02T00:04:22.090Z,100011.03
2023-02-02T00:06:50.032Z,99992.88
2023-02-02T00:09:19.823Z,99995.09
2023-02-02T00:11:51.007Z,99988.44
2023-02-02T00:14:19.259Z,100000.84
2023-02-02T00:16:47.893Z,99996.69
2023-02-02T00:19:17.101Z,99992.94
2023-02-02T00:21:45.355Z,99988.44
2023-02-02T00:24:14.880Z,99985.84
2023-02-02T00:26:44.102Z,99981.53
2023-02-02T00:29:16.586Z,99982.94
2023-02-02T00:31:44.002Z,99987.69
2023-02-02T00:34:12.563Z,99978.81
2023-02-02T00:36:40.167Z,99976.50
2023-02-02T00:39:08.344Z,99983.97
2023-02-02T00:41:35.691Z,99982.25
2023-02-02T00:44:20.359Z,99983.44
2023-02-02T00:46:49.033Z,99977.13
2023-02-02T00:49:16.460Z,99981.97
2023-02-02T00:51:43.881Z,99975.41
2023-02-02T00:54:11.263Z,99975.41
2023-02-02T00:56:38.703Z,99980.84
2023-02-02T00:59:06.120Z,99982.44
2023-02-02T01:01:34.572Z,99979.78
2023-02-02T01:04:03.263Z,99984.31
2023-02-02T01:06:30.610Z,99980.72
2023-02-02T01:08:58.388Z,99977.34
2023-02-02T01:11:26.435Z,99973.31
2023-02-02T01:13:53.700Z,99981.19
2023-02-02T01:16:22.374Z,99973.44
2023-02-02T01:18:50.151Z,99977.41
2023-02-02T01:21:19.248Z,99975.53
2023-02-02T01:23:46.825Z,99981.41
2023-02-02T01:26:15.050Z,99986.34
2023-02-02T01:28:42.928Z,99992.50
2023-02-02T01:31:12.306Z,99976.66
2023-02-02T01:33:40.263Z,99987.13
2023-02-02T01:36:11.069Z,99977.50
2023-02-02T01:38:40.321Z,99964.47
2023-02-02T01:41:08.025Z,99971.34
2023-02-02T01:43:56.696Z,99969.53
2023-02-02T01:46:26.724Z,99964.63
2023-02-02T01:48:59.311Z,99974.00
2023-02-02T01:51:33.307Z,99973.63
2023-02-02T01:54:02.975Z,99971.34
2023-02-02T01:56:33.595Z,99972.75
2023-02-02T01:59:02.144Z,99969.53
2023-02-02T02:01:29.745Z,99953.00
2023-02-02T02:03:57.686Z,99959.00
2023-02-02T02:06:26.644Z,99949.16
2023-02-02T02:08:57.498Z,99963.84
2023-02-02T02:11:26.226Z,99958.22
2023-02-02T02:14:14.414Z,99959.38
2023-02-02T02:16:59.423Z,99960.88
2023-02-02T02:20:20.624Z,99968.69
2023-02-02T02:23:34.571Z,99972.38
2023-02-02T02:26:37.495Z,99981.06
2023-02-02T02:29:28.165Z,99964.94
2023-02-02T02:32:28.354Z,99967.06
2023-02-02T02:35:01.590Z,99967.84
2023-02-02T02:37:37.776Z,99954.16
2023-02-02T02:40:12.476Z,99964.78
2023-02-02T02:42:44.905Z,99964.34
2023-02-02T02:45:13.749Z,99972.75
2023-02-02T02:47:43.953Z,99956.44
2023-02-02T02:50:12.019Z,99960.03
2023-02-02T02:52:39.863Z,99948.84
2023-02-02T02:55:07.800Z,99960.91
2023-02-02T02:57:45.657Z,99960.25
2023-02-02T03:00:41.393Z,99961.75
2023-02-02T03:03:20.618Z,99952.84
2023-02-02T03:05:54.975Z,99954.16
2023-02-02T03:08:28.308Z,99962.31
2023-02-02T03:10:57.622Z,99959.41
2023-02-02T03:13:26.530Z,99964.41
2023-02-02T03:15:54.703Z,99969.50
2023-02-02T03:18:27.236Z,99980.19
2023-02-02T03:20:54.704Z,99967.75
2023-02-02T03:23:22.501Z,99973.06
2023-02-02T03:25:50.353Z,99967.63
2023-02-02T03:28:18.767Z,99977.78
2023-02-02T03:30:48.619Z,99967.28
2023-02-02T03:33:17.331Z,99990.75
2023-02-02T03:35:46.660Z,99965.41
2023-02-02T03:38:14.018Z,99973.31
2023-02-02T03:40:41.683Z,99979.50
2023-02-02T03:43:09.195Z,99976.03
2023-02-02T03:45:37.198Z,99992.72
2023-02-02T03:48:05.130Z,99977.91
2023-02-02T03:50:32.471Z,99993.25
2023-02-02T03:53:01.208Z,99991.63
2023-02-02T03:55:28.579Z,99990.97
2023-02-02T03:57:55.918Z,99991.22
2023-02-02T04:00:23.484Z,99986.00
2023-02-02T04:02:50.901Z,99981.34
2023-02-02T04:05:18.269Z,99983.53
2023-02-02T04:07:45.639Z,100002.94
2023-02-02T04:10:14.334Z,99987.22
2023-02-02T04:12:41.705Z,99987.41
2023-02-02T04:15:10.000Z,99998.94
2023-02-02T04:17:37.394Z,99994.41
2023-02-02T04:20:05.726Z,100009.22
2023-02-02T04:22:34.140Z,100003.66
2023-02-02T04:25:01.516Z,100010.47
2023-02-02T04:27:32.508Z,100020.13
2023-02-02T04:29:59.899Z,100016.78
2023-02-02T04:32:27.284Z,100025.94
2023-02-02T04:34:54.663Z,100018.56
2023-02-02T04:37:22.034Z,100014.66
2023-02-02T04:39:50.629Z,100019.59
2023-02-02T04:42:18.018Z,100033.44
2023-02-02T04:44:46.797Z,100032.97
2023-02-02T04:47:14.187Z,100032.16
2023-02-02T04:49:41.538Z,100032.28
2023-02-02T04:52:08.941Z,100029.06
2023-02-02T04:54:36.306Z,100034.84
2023-02-02T04:57:03.865Z,100044.84
2023-02-02T04:59:31.248Z,100035.91
2023-02-02T05:02:01.561Z,100040.78
2023-02-02T05:04:29.064Z,100042.41
2023-02-02T05:06:56.502Z,100032.50
2023-02-02T05:09:24.037Z,100038.22
2023-02-02T05:11:51.534Z,100057.97
2023-02-02T05:14:20.223Z,100050.94
2023-02-02T05:16:47.711Z,100049.47
2023-02-02T05:19:16.964Z,100060.31
2023-02-02T05:21:45.604Z,100069.16
2023-02-02T05:24:13.495Z,100071.81
2023-02-02T05:26:40.947Z,100071.50
2023-02-02T05:29:09.186Z,100086.28
2023-02-02T05:31:36.754Z,100079.47
2023-02-02T05:34:04.946Z,100088.84
2023-02-02T05:36:33.756Z,100090.81
2023-02-02T05:39:01.283Z,100095.56
2023-02-02T05:41:28.643Z,100108.63
2023-02-02T05:43:56.044Z,100093.88
2023-02-02T05:46:23.384Z,100089.16
2023-02-02T05:48:50.748Z,100102.53
2023-02-02T05:51:21.881Z,100097.69
2023-02-02T05:53:50.593Z,100110.84
2023-02-02T05:56:17.983Z,100114.56
2023-02-02T05:58:47.304Z,100130.22
2023-02-02T06:01:15.070Z,100127.78
2023-02-02T06:03:42.508Z,100129.59
2023-02-02T06:06:10.607Z,100134.38
2023-02-02T06:08:37.977Z,100134.69
2023-02-02T06:11:11.350Z,100147.75
2023-02-02T06:13:38.772Z,100137.81
2023-02-02T06:16:07.104Z,100149.47
2023-02-02T06:18:34.865Z,100152.91
2023-02-02T06:21:04.012Z,100156.34
2023-02-02T06:23:31.387Z,100154.72
2023-02-02T06:25:58.907Z,100165.50
2023-02-02T06:28:27.675Z,100171.97
2023-02-02T06:30:55.139Z,100167.84
2023-02-02T06:33:22.529Z,100174.19
2023-02-02T06:35:49.915Z,100158.28
2023-02-02T06:38:19.007Z,100166.13
2023-02-02T06:40:46.372Z,100172.59
2023-02-02T06:43:15.459Z,100169.38
2023-02-02T06:45:44.208Z,100182.16
2023-02-02T06:48:11.882Z,100166.81
2023-02-02T06:50:39.461Z,100167.44
2023-02-02T06:53:07.437Z,100177.81
2023-02-02T06:55:34.779Z,100184.41
2023-02-02T06:58:02.630Z,100185.50
2023-02-02T07:00:31.087Z,100181.19
2023-02-02T07:02:59.984Z,100205.03
2023-02-02T07:05:30.840Z,100190.75
2023-02-02T07:07:58.473Z,100193.31
2023-02-02T07:11:09.369Z,100201.50
2023-02-02T07:13:13.594Z,100199.56
2023-02-02T07:15:41.800Z,100217.31
2023-02-02T07:18:10.531Z,100203.38
2023-02-02T07:20:37.904Z,100210.94
2023-02-02T07:23:05.344Z,100218.47
2023-02-02T07:25:32.731Z,100221.41
2023-02-02T07:28:00.104Z,100223.22
2023-02-02T07:30:29.737Z,100228.88
2023-02-02T07:32:57.531Z,100226.72
2023-02-02T07:35:26.568Z,100237.75
2023-02-02T07:37:54.990Z,100238.94
2023-02-02T07:40:22.922Z,100239.72
2023-02-02T07:42:50.457Z,100240.72
2023-02-02T07:45:27.095Z,100241.25
2023-02-02T07:47:58.948Z,100244.03
2023-02-02T07:50:29.672Z,100243.09
2023-02-02T07:52:57.331Z,100249.69
2023-02-02T07:55:24.823Z,100249.47
2023-02-02T07:57:52.623Z,100254.56
2023-02-02T08:00:21.197Z,100266.00
2023-02-02T08:02:49.882Z,100265.72
2023-02-02T08:05:17.639Z,100261.25
2023-02-02T08:07:46.359Z,100255.38
2023-02-02T08:10:13.702Z,100262.56
2023-02-02T08:12:41.097Z,100259.94
2023-02-02T08:15:09.501Z,100274.03
2023-02-02T08:17:37.480Z,100283.31
2023-02-02T08:20:05.579Z,100287.41
2023-02-02T08:22:32.948Z,100279.59
2023-02-02T08:25:01.675Z,100294.53
2023-02-02T08:27:29.123Z,100289.81
2023-02-02T08:29:56.473Z,100294.97
2023-02-02T08:32:23.963Z,100296.84
2023-02-02T08:34:51.783Z,100302.72
2023-02-02T08:37:19.221Z,100302.56
2023-02-02T08:39:46.586Z,100315.00
2023-02-02T08:42:15.554Z,100305.16
2023-02-02T08:45:57.565Z,100306.97
2023-02-02T08:47:30.676Z,100311.44
2023-02-02T08:49:58.247Z,100306.41
2023-02-02T08:52:25.999Z,100306.41
2023-02-02T08:54:53.386Z,100315.28
2023-02-02T08:57:22.071Z,100317.09
2023-02-02T08:59:49.487Z,100319.69
2023-02-02T09:02:17.915Z,100326.00
2023-02-02T09:04:46.966Z,100333.28
2023-02-02T09:07:14.389Z,100339.09
2023-02-02T09:09:41.834Z,100335.72
2023-02-02T09:12:09.212Z,100335.50
2023-02-02T09:14:37.919Z,100339.59
2023-02-02T09:17:05.323Z,100340.41
2023-02-02T09:19:32.991Z,100341.19
2023-02-02T09:22:00.467Z,100338.53
2023-02-02T09:24:27.975Z,100346.28
2023-02-02T09:26:55.415Z,100350.38
2023-02-02T09:29:22.781Z,100353.31
2023-02-02T09:31:51.604Z,100357.19
2023-02-02T09:34:19.009Z,100366.56
2023-02-02T09:36:47.403Z,100358.38
2023-02-02T09:39:16.571Z,100369.91
2023-02-02T09:42:29.087Z,100375.53
2023-02-02T09:45:08.579Z,100381.28
2023-02-02T09:47:55.540Z,100381.50
2023-02-02T09:50:40.899Z,100383.94
2023-02-02T09:53:15.240Z,100388.69
2023-02-02T09:55:45.541Z,100391.28
2023-02-02T09:58:17.421Z,100399.25
2023-02-02T10:00:48.729Z,100406.66
2023-02-02T10:03:22.130Z,100398.31
2023-02-02T10:05:55.518Z,100400.97
2023-02-02T10:08:35.055Z,100404.38
2023-02-02T10:11:11.724Z,100403.84
2023-02-02T10:13:43.488Z,100413.69
2023-02-02T10:16:17.366Z,100399.63
2023-02-02T10:18:50.251Z,100408.53
2023-02-02T10:21:27.424Z,100413.16
2023-02-02T10:23:55.012Z,100391.72
2023-02-02T10:26:24.228Z,100407.66
2023-02-02T10:29:06.248Z,100403.88
2023-02-02T10:31:45.153Z,100406.38
2023-02-02T10:34:18.826Z,100413.28
2023-02-02T10:36:56.981Z,100413.56
2023-02-02T10:39:32.156Z,100414.44
2023-02-02T10:42:14.080Z,100409.69
2023-02-02T10:44:48.626Z,100417.78
2023-02-02T10:47:24.725Z,100413.63
2023-02-02T10:50:01.556Z,100420.84
2023-02-02T10:52:33.962Z,100411.66
2023-02-02T10:55:05.925Z,100405.44
2023-02-02T10:57:49.382Z,100414.53
2023-02-02T11:00:23.389Z,100415.78
2023-02-02T11:02:52.449Z,100418.59
2023-02-02T11:05:41.269Z,100425.00
2023-02-02T11:08:16.922Z,100429.59
2023-02-02T11:10:45.898Z,100430.97
2023-02-02T11:13:17.852Z,100423.50
2023-02-02T11:15:45.295Z,100424.44
2023-02-02T11:18:28.712Z,100428.97
2023-02-02T11:20:58.455Z,100428.25
2023-02-02T11:23:29.060Z,100425.81
2023-02-02T11:26:01.613Z,100436.03
2023-02-02T11:28:34.141Z,100431.13
2023-02-02T11:31:01.772Z,100438.41
2023-02-02T11:33:33.053Z,100434.03
2023-02-02T11:36:03.787Z,100435.16
2023-02-02T11:38:32.224Z,100444.25
2023-02-02T11:41:03.751Z,100437.47
2023-02-02T11:43:34.248Z,100443.88
2023-02-02T11:46:04.247Z,100451.63
2023-02-02T11:48:35.729Z,100450.09
2023-02-02T11:51:07.025Z,100456.09
2023-02-02T11:53:40.110Z,100450.00
2023-02-02T11:56:18.404Z,100457.09
2023-02-02T11:58:47.145Z,100448.34
2023-02-02T12:01:25.596Z,100461.78
2023-02-02T12:03:55.109Z,100452.63
2023-02-02T12:06:26.267Z,100463.34
2023-02-02T12:08:57.999Z,100459.16
2023-02-02T12:11:40.488Z,100458.72
2023-02-02T12:14:22.326Z,100461.88
2023-02-02T12:16:58.889Z,100443.28
2023-02-02T12:19:49.764Z,100457.09
2023-02-02T12:22:33.434Z,100458.19
2023-02-02T12:25:14.418Z,100455.94
2023-02-02T12:27:51.439Z,100457.97
2023-02-02T12:30:28.759Z,100459.41
2023-02-02T12:33:09.893Z,100455.34
2023-02-02T12:35:51.004Z,100458.88
2023-02-02T12:38:31.613Z,100465.97
2023-02-02T12:41:23.124Z,100463.50
2023-02-02T12:43:59.338Z,100465.13
2023-02-02T12:46:38.682Z,100465.22
2023-02-02T12:49:28.809Z,100477.28
2023-02-02T12:52:20.391Z,100476.50
2023-02-02T12:55:08.074Z,100467.44
2023-02-02T12:57:47.401Z,100483.63
2023-02-02T13:00:34.616Z,100486.88
2023-02-02T13:03:16.976Z,100496.06
2023-02-02T13:05:58.417Z,100486.47
2023-02-02T13:08:30.824Z,100494.94
2023-02-02T13:11:04.703Z,100495.09
2023-02-02T13:13:37.780Z,100500.06
2023-02-02T13:16:08.500Z,100498.91
2023-02-02T13:18:40.451Z,100489.59
2023-02-02T13:21:12.541Z,100495.88
2023-02-02T13:23:45.220Z,100494.94
2023-02-02T13:26:19.702Z,100505.91
2023-02-02T13:28:53.509Z,100505.75
2023-02-02T13:31:25.877Z,100497.31
2023-02-02T13:34:02.704Z,100512.75
2023-02-02T13:36:37.107Z,100514.72
2023-02-02T13:39:15.862Z,100512.19
2023-02-02T13:41:45.375Z,100514.72
2023-02-02T13:44:22.515Z,100520.72
2023-02-02T13:46:56.741Z,100520.94
2023-02-02T13:49:29.899Z,100536.06
2023-02-02T13:52:15.899Z,100540.72
2023-02-02T13:55:21.709Z,100549.16
2023-02-02T13:58:12.442Z,100549.00
2023-02-02T14:00:47.534Z,100556.94
2023-02-02T14:03:32.127Z,100553.34
2023-02-02T14:06:05.609Z,100555.63
2023-02-02T14:08:33.558Z,100568.94
2023-02-02T14:11:03.289Z,100569.16
2023-02-02T14:13:56.487Z,100571.03
2023-02-02T14:16:25.998Z,100584.84
2023-02-02T14:18:57.748Z,100582.25
2023-02-02T14:22:00.025Z,100587.16
2023-02-02T14:24:43.403Z,100583.44
2023-02-02T14:28:02.889Z,100598.19
2023-02-02T14:30:34.814Z,100595.72
2023-02-02T14:33:39.080Z,100599.84
2023-02-02T14:36:13.596Z,100608.81
2023-02-02T14:39:02.597Z,100607.81
2023-02-02T14:42:00.911Z,100607.34
2023-02-02T14:44:30.612Z,100617.25
2023-02-02T14:46:59.406Z,100616.13
2023-02-02T14:49:35.349Z,100623.31
2023-02-02T14:52:05.234Z,100628.19
2023-02-02T14:54:36.733Z,100625.88
2023-02-02T14:57:07.204Z,100635.97
2023-02-02T14:59:38.434Z,100644.16
2023-02-02T15:02:18.359Z,100649.66
2023-02-02T15:04:47.946Z,100651.78
2023-02-02T15:07:52.878Z,100654.22
2023-02-02T15:10:57.659Z,100667.16
2023-02-02T15:13:27.955Z,100665.44
2023-02-02T15:16:07.478Z,100670.16
2023-02-02T15:18:44.154Z,100671.69
2023-02-02T15:21:16.331Z,100672.13
2023-02-02T15:23:46.107Z,100676.91
2023-02-02T15:26:18.289Z,100679.69
2023-02-02T15:28:52.328Z,100688.47
2023-02-02T15:31:28.758Z,100690.72
2023-02-02T15:34:01.107Z,100693.44
2023-02-02T15:36:32.502Z,100700.75
2023-02-02T15:39:03.933Z,100707.84
2023-02-02T15:41:34.391Z,100710.28
2023-02-02T15:44:02.144Z,100715.69
2023-02-02T15:46:35.087Z,100721.38
2023-02-02T15:49:35.326Z,100731.81
2023-02-02T15:52:12.307Z,100731.81
2023-02-02T15:54:49.267Z,100744.56
2023-02-02T15:57:24.926Z,100751.50
2023-02-02T15:59:52.546Z,100766.44
2023-02-02T16:02:25.897Z,100779.72
2023-02-02T16:04:54.641Z,100784.63
2023-02-02T16:07:28.083Z,100790.88
2023-02-02T16:09:55.501Z,100794.41
2023-02-02T16:12:24.357Z,100801.28
2023-02-02T16:14:53.925Z,100803.19
2023-02-02T16:17:23.955Z,100813.22
2023-02-02T16:19:59.635Z,100840.88
2023-02-02T16:22:30.769Z,100845.09
2023-02-02T16:25:02.981Z,100854.19
2023-02-02T16:27:31.663Z,100860.97
2023-02-02T16:30:02.159Z,100868.34
2023-02-02T16:32:32.694Z,100874.00
2023-02-02T16:35:02.876Z,100877.34
2023-02-02T16:37:32.832Z,100895.34
2023-02-02T16:40:19.876Z,100902.56
2023-02-02T16:43:04.645Z,100906.63
2023-02-02T16:45:35.615Z,100904.81
2023-02-02T16:48:28.253Z,100894.59
2023-02-02T16:51:12.722Z,100907.59
2023-02-02T16:53:41.747Z,100907.28
2023-02-02T16:56:10.750Z,100890.91
2023-02-02T16:58:45.198Z,100900.66
2023-02-02T17:01:16.333Z,100904.44
2023-02-02T17:03:51.070Z,100903.75
2023-02-02T17:06:25.407Z,100915.19
2023-02-02T17:08:54.092Z,100914.06
2023-02-02T17:11:25.095Z,100916.72
2023-02-02T17:13:53.659Z,100929.13
2023-02-02T17:16:23.220Z,100941.63
2023-02-02T17:18:52.184Z,100943.91
2023-02-02T17:21:22.615Z,100957.78
2023-02-02T17:23:54.035Z,100968.09
2023-02-02T17:26:22.929Z,100960.84
2023-02-02T17:28:55.676Z,100968.50
2023-02-02T17:31:23.222Z,100966.09
2023-02-02T17:33:50.727Z,100980.41
2023-02-02T17:36:18.136Z,100981.81
2023-02-02T17:38:45.554Z,100994.13
2023-02-02T17:41:14.142Z,101008.31
2023-02-02T17:43:43.570Z,101012.56
2023-02-02T17:46:12.962Z,101022.84
2023-02-02T17:48:40.341Z,101011.28
2023-02-02T17:51:14.900Z,101017.59
2023-02-02T17:53:42.343Z,101028.09
2023-02-02T17:56:09.845Z,101015.78
2023-02-02T17:58:37.198Z,101017.22
2023-02-02T18:01:06.295Z,101018.22
2023-02-02T18:03:36.659Z,101018.56
2023-02-02T18:06:04.820Z,101024.31
2023-02-02T18:08:33.856Z,101025.31
2023-02-02T18:11:04.569Z,101025.88
2023-02-02T18:13:32.253Z,101026.28
2023-02-02T18:15:59.952Z,101027.84
2023-02-02T18:18:29.754Z,101033.91
2023-02-02T18:21:01.587Z,101035.69
2023-02-02T18:23:29.427Z,101042.56
2023-02-02T18:25:56.845Z,101039.50
2023-02-02T18:28:24.350Z,101036.56
2023-02-02T18:30:51.830Z,101045.13
2023-02-02T18:33:19.873Z,101044.88
2023-02-02T18:35:49.138Z,101052.22
2023-02-02T18:38:16.534Z,101046.34
2023-02-02T18:40:43.924Z,101051.84
2023-02-02T18:43:11.370Z,101059.22
2023-02-02T18:45:38.751Z,101056.19
2023-02-02T18:48:06.502Z,101057.94
2023-02-02T18:50:33.887Z,101048.97
2023-02-02T18:53:02.589Z,101060.47
2023-02-02T18:55:29.949Z,101057.00
2023-02-02T18:57:57.348Z,101056.13
2023-02-02T19:00:25.013Z,101057.38
2023-02-02T19:02:55.555Z,101069.81
2023-02-02T19:05:40.533Z,101063.72
2023-02-02T19:08:09.622Z,101068.31
2023-02-02T19:10:37.248Z,101072.06
2023-02-02T19:13:15.355Z,101072.00
2023-02-02T19:15:43.035Z,101065.59
2023-02-02T19:18:14.916Z,101070.72
2023-02-02T19:20:43.255Z,101068.16
2023-02-02T19:23:14.508Z,101072.13
2023-02-02T19:25:45.544Z,101078.28
2023-02-02T19:28:22.035Z,101081.09
2023-02-02T19:30:50.076Z,101079.41
2023-02-02T19:33:17.643Z,101079.88
2023-02-02T19:35:47.845Z,101078.78
2023-02-02T19:38:20.436Z,101081.88
2023-02-02T19:40:47.890Z,101081.22
2023-02-02T19:43:27.030Z,101088.22
2023-02-02T19:45:54.617Z,101084.78
2023-02-02T19:48:26.379Z,101094.31
2023-02-02T19:50:55.239Z,101094.19
2023-02-02T19:53:25.704Z,101088.72
2023-02-02T19:55:53.440Z,101085.25
2023-02-02T19:58:23.255Z,101081.78
2023-02-02T20:00:53.164Z,101093.44
2023-02-02T20:03:22.421Z,101091.78
2023-02-02T20:05:52.369Z,101094.56
2023-02-02T20:08:27.668Z,101098.91
2023-02-02T20:10:56.256Z,101094.84
2023-02-02T20:13:26.425Z,101089.84
2023-02-02T20:16:03.729Z,101090.72
2023-02-02T20:18:38.633Z,101096.94
2023-02-02T20:21:10.524Z,101088.91
2023-02-02T20:23:43.829Z,101092.38
2023-02-02T20:26:23.126Z,101095.88
2023-02-02T20:28:52.502Z,101099.25
2023-02-02T20:31:23.317Z,101085.97
2023-02-02T20:33:53.175Z,101096.53
2023-02-02T20:36:32.538Z,101092.06
2023-02-02T20:39:21.406Z,101098.19
2023-02-02T20:41:48.903Z,101095.44
2023-02-02T20:44:16.307Z,101106.22
2023-02-02T20:46:43.725Z,101097.00
2023-02-02T20:49:11.158Z,101092.69
2023-02-02T20:51:40.589Z,101102.88
2023-02-02T20:54:10.370Z,101113.34
2023-02-02T20:56:38.516Z,101102.53
2023-02-02T20:59:07.394Z,101108.72
2023-02-02T21:01:34.941Z,101104.22
2023-02-02T21:04:05.296Z,101113.19
2023-02-02T21:06:32.697Z,101110.44
2023-02-02T21:09:00.120Z,101116.50
2023-02-02T21:11:28.856Z,101106.84
2023-02-02T21:13:57.254Z,101113.97
2023-02-02T21:16:25.202Z,101108.53
2023-02-02T21:18:53.187Z,101103.22
2023-02-02T21:21:22.436Z,101104.75
2023-02-02T21:23:51.432Z,101108.41
2023-02-02T21:26:23.374Z,101097.00
2023-02-02T21:28:52.063Z,101102.59
2023-02-02T21:31:19.767Z,101106.22
2023-02-02T21:33:49.846Z,101100.03
2023-02-02T21:36:32.637Z,101102.84
2023-02-02T21:39:05.842Z,101099.25
2023-02-02T21:41:34.265Z,101108.31
2023-02-02T21:44:03.051Z,101097.91
2023-02-02T21:46:35.970Z,101095.03
2023-02-02T21:49:04.171Z,101093.63
2023-02-02T21:51:35.377Z,101087.97
2023-02-02T21:54:20.782Z,101092.84
2023-02-02T21:56:48.645Z,101086.19
2023-02-02T21:59:19.458Z,101090.94
2023-02-02T22:01:48.543Z,101095.31
2023-02-02T22:04:19.139Z,101094.56
2023-02-02T22:06:47.940Z,101104.31
2023-02-02T22:09:19.883Z,101101.19
2023-02-02T22:11:50.637Z,101104.81
2023-02-02T22:14:21.951Z,101102.31
2023-02-02T22:16:52.034Z,101098.06
2023-02-02T22:19:26.417Z,101096.28
2023-02-02T22:21:55.387Z,101102.63
2023-02-02T22:24:23.031Z,101100.25
2023-02-02T22:26:50.355Z,101106.19
2023-02-02T22:29:21.163Z,101098.34
2023-02-02T22:31:48.644Z,101099.06
2023-02-02T22:34:16.061Z,101089.66
2023-02-02T22:36:43.431Z,101093.59
2023-02-02T22:39:10.928Z,101095.72
2023-02-02T22:41:38.287Z,101092.59
2023-02-02T22:44:05.943Z,101096.56
2023-02-02T22:46:34.732Z,101112.66
2023-02-02T22:49:02.124Z,101102.16
2023-02-02T22:51:29.500Z,101091.66
2023-02-02T22:53:56.879Z,101090.00
2023-02-02T22:56:24.381Z,101088.56
2023-02-02T22:58:51.798Z,101095.19
2023-02-02T23:01:19.141Z,101088.97
2023-02-02T23:03:48.593Z,101084.69
2023-02-02T23:06:16.191Z,101075.25
2023-02-02T23:08:44.290Z,101070.72
2023-02-02T23:11:11.682Z,101073.94
2023-02-02T23:13:39.053Z,101075.59
2023-02-02T23:16:07.149Z,101073.09
2023-02-02T23:18:34.562Z,101060.69
2023-02-02T23:21:03.323Z,101058.03
2023-02-02T23:23:30.713Z,101058.88
2023-02-02T23:25:58.088Z,101059.16
2023-02-02T23:28:25.737Z,101055.63
2023-02-02T23:30:54.567Z,101057.13
2023-02-02T23:33:22.029Z,101068.78
2023-02-02T23:35:49.399Z,101073.06
2023-02-02T23:38:18.079Z,101074.81
2023-02-02T23:40:45.777Z,101072.97
2023-02-02T23:43:13.161Z,101067.47
2023-02-02T23:45:40.729Z,101070.91
2023-02-02T23:48:09.537Z,101064.69
2023-02-02T23:50:38.761Z,101054.25
2023-02-02T23:53:06.636Z,101042.78
2023-02-02T23:55:35.605Z,101052.53
2023-02-02T23:58:03.129Z,101048.25
